LFPG

Charles de Gaulle International Airport

Paris, France
METAR LFPG 221500Z 34003KT 280V030 9999 TS FEW047CB SCT053TCU BKN180 22/11 Q1012 TEMPO VRB15G30KT 2000 TSRA
Observed Flight Rules
May-22 @ 15:00 UTC (36 minutes ago) Visual Flight Rules
Wind Visibility Clouds Conditions
340° at 3 knots 10,000+ meters
  • Few at 4,700' AGL
  • Scattered at 5,300' AGL
  • Broken at 18,000' AGL
  • Thunderstorm
Temperatures Readings
Current 22°C / 72°F
Dewpoint 11°C / 52°F
Humidity 50%
Altimeter 29.88" Hg
Pressure 1012 hPa
Elevation 109
METAR LFPG 221500Z 34003KT 280V030 9999 TS FEW047CB SCT053TCU BKN180 22/11 Q1012 TEMPO VRB15G30KT 2000 TSRA
Observed Flight Rules
May-22 @ 15:00 UTC
(36 minutes ago)
VFR
Wind Visibility
340° at 3 knots 10,000+ meters
Clouds
  • Few at 4,700' AGL
  • Scattered at 5,300' AGL
  • Broken at 18,000' AGL
Conditions
  • Thunderstorm
Temperature Dewpoint
22°C / 72°F 11°C / 52°F
Humidity Altimeter Pressure
50% 29.88" Hg 1012 hPa